Central City, South Dakota
Current Conditions -  °F | °C
As of 6:15 PM on Sunday 21 Dec 2014 (Local Time) from KSPF Reporting Station
Broken Clouds Broken Clouds  
Wind Chill: 33°   Ceiling: 5000
Heat Index: 37°   Visibility: 10mi
Dew Point: 34°   Wind: 6mph
Humidity: 87%   Direction: 290°WNW
Pressure: 29.46"   Gusts: NA
Location:  44.253°N, 103.912°W
Report Text: KSPF 220115Z AUTO 29005KT 10SM FEW028 SCT042 BKN050 03/01 A2946 RMK AO2
Loading
Personal Weather Stations






























Interactive Weather Map New forecast layout! Learn more

10-Day Weather Forecast

Advertisements
Track Severe Weather on mobile